sensor_id;sensor_type;location;lat;lon;timestamp;P1;durP1;ratioP1;P2;durP2;ratioP2
71763;SDS011;59602;52.142;5.408;2024-03-07T00:00:40;30.67;;;12.43;;
71763;SDS011;59602;52.142;5.408;2024-03-07T00:03:14;28.20;;;10.75;;
71763;SDS011;59602;52.142;5.408;2024-03-07T00:05:43;22.40;;;10.05;;
71763;SDS011;59602;52.142;5.408;2024-03-07T00:08:39;26.17;;;11.60;;
71763;SDS011;59602;52.142;5.408;2024-03-07T00:11:08;26.67;;;11.60;;
71763;SDS011;59602;52.142;5.408;2024-03-07T00:13:42;24.00;;;10.47;;
71763;SDS011;59602;52.142;5.408;2024-03-07T00:16:10;28.58;;;12.15;;
71763;SDS011;59602;52.142;5.408;2024-03-07T00:18:36;26.83;;;11.50;;
71763;SDS011;59602;52.142;5.408;2024-03-07T00:21:12;29.65;;;11.95;;
71763;SDS011;59602;52.142;5.408;2024-03-07T00:23:42;32.75;;;12.32;;
71763;SDS011;59602;52.142;5.408;2024-03-07T00:26:10;30.83;;;12.20;;
71763;SDS011;59602;52.142;5.408;2024-03-07T00:28:37;30.77;;;12.35;;
71763;SDS011;59602;52.142;5.408;2024-03-07T00:31:06;31.30;;;12.27;;
71763;SDS011;59602;52.142;5.408;2024-03-07T00:33:33;32.90;;;12.60;;
71763;SDS011;59602;52.142;5.408;2024-03-07T00:36:20;21.38;;;10.02;;
71763;SDS011;59602;52.142;5.408;2024-03-07T00:38:48;27.73;;;11.33;;
71763;SDS011;59602;52.142;5.408;2024-03-07T00:41:15;26.40;;;11.55;;
71763;SDS011;59602;52.142;5.408;2024-03-07T00:43:43;25.95;;;10.43;;
71763;SDS011;59602;52.142;5.408;2024-03-07T00:46:10;30.30;;;11.50;;
71763;SDS011;59602;52.142;5.408;2024-03-07T00:48:37;24.52;;;9.77;;
71763;SDS011;59602;52.142;5.408;2024-03-07T00:51:04;23.57;;;9.90;;
71763;SDS011;59602;52.142;5.408;2024-03-07T00:53:44;23.80;;;11.00;;
71763;SDS011;59602;52.142;5.408;2024-03-07T00:56:11;26.10;;;10.30;;
71763;SDS011;59602;52.142;5.408;2024-03-07T00:58:40;25.80;;;10.82;;
71763;SDS011;59602;52.142;5.408;2024-03-07T01:01:10;28.23;;;11.25;;
71763;SDS011;59602;52.142;5.408;2024-03-07T01:03:46;23.17;;;9.87;;
71763;SDS011;59602;52.142;5.408;2024-03-07T01:06:14;25.98;;;12.23;;
71763;SDS011;59602;52.142;5.408;2024-03-07T01:08:47;27.10;;;11.55;;
71763;SDS011;59602;52.142;5.408;2024-03-07T01:11:15;25.73;;;10.52;;
71763;SDS011;59602;52.142;5.408;2024-03-07T01:13:48;28.88;;;11.13;;
71763;SDS011;59602;52.142;5.408;2024-03-07T01:16:22;24.97;;;10.30;;
71763;SDS011;59602;52.142;5.408;2024-03-07T01:18:49;32.47;;;12.07;;
71763;SDS011;59602;52.142;5.408;2024-03-07T01:21:16;30.65;;;12.05;;
71763;SDS011;59602;52.142;5.408;2024-03-07T01:23:44;29.83;;;11.50;;
71763;SDS011;59602;52.142;5.408;2024-03-07T01:26:18;29.00;;;11.60;;
71763;SDS011;59602;52.142;5.408;2024-03-07T01:28:45;33.60;;;11.63;;
71763;SDS011;59602;52.142;5.408;2024-03-07T01:31:15;24.90;;;9.73;;
71763;SDS011;59602;52.142;5.408;2024-03-07T01:33:45;35.90;;;12.68;;
71763;SDS011;59602;52.142;5.408;2024-03-07T01:36:12;24.83;;;10.43;;
71763;SDS011;59602;52.142;5.408;2024-03-07T01:38:39;27.25;;;10.98;;
71763;SDS011;59602;52.142;5.408;2024-03-07T01:41:08;30.07;;;11.70;;
71763;SDS011;59602;52.142;5.408;2024-03-07T01:43:40;32.22;;;12.15;;
71763;SDS011;59602;52.142;5.408;2024-03-07T01:46:08;27.42;;;10.35;;
71763;SDS011;59602;52.142;5.408;2024-03-07T01:48:50;25.70;;;9.80;;
71763;SDS011;59602;52.142;5.408;2024-03-07T01:51:19;22.80;;;9.82;;
71763;SDS011;59602;52.142;5.408;2024-03-07T01:53:56;29.83;;;11.43;;
71763;SDS011;59602;52.142;5.408;2024-03-07T01:56:38;28.30;;;11.05;;
71763;SDS011;59602;52.142;5.408;2024-03-07T01:59:31;26.40;;;11.15;;
71763;SDS011;59602;52.142;5.408;2024-03-07T02:02:13;24.45;;;10.00;;
71763;SDS011;59602;52.142;5.408;2024-03-07T02:05:12;27.70;;;11.25;;
71763;SDS011;59602;52.142;5.408;2024-03-07T02:07:40;26.20;;;10.73;;
71763;SDS011;59602;52.142;5.408;2024-03-07T02:10:07;27.70;;;10.63;;
71763;SDS011;59602;52.142;5.408;2024-03-07T02:12:38;29.52;;;12.00;;
71763;SDS011;59602;52.142;5.408;2024-03-07T02:15:05;29.98;;;12.02;;
71763;SDS011;59602;52.142;5.408;2024-03-07T02:17:32;32.22;;;12.35;;
71763;SDS011;59602;52.142;5.408;2024-03-07T02:20:01;27.33;;;10.90;;
71763;SDS011;59602;52.142;5.408;2024-03-07T02:22:34;35.13;;;13.50;;
71763;SDS011;59602;52.142;5.408;2024-03-07T02:25:01;35.25;;;13.68;;
71763;SDS011;59602;52.142;5.408;2024-03-07T02:27:29;36.50;;;14.15;;
71763;SDS011;59602;52.142;5.408;2024-03-07T02:29:56;36.60;;;12.30;;
71763;SDS011;59602;52.142;5.408;2024-03-07T02:32:23;37.93;;;13.03;;
71763;SDS011;59602;52.142;5.408;2024-03-07T02:34:50;28.88;;;11.68;;
71763;SDS011;59602;52.142;5.408;2024-03-07T02:37:19;32.45;;;12.27;;
71763;SDS011;59602;52.142;5.408;2024-03-07T02:39:53;29.23;;;11.75;;
71763;SDS011;59602;52.142;5.408;2024-03-07T02:42:20;27.67;;;11.55;;
71763;SDS011;59602;52.142;5.408;2024-03-07T02:44:51;26.03;;;10.53;;
71763;SDS011;59602;52.142;5.408;2024-03-07T02:47:21;28.50;;;11.05;;
71763;SDS011;59602;52.142;5.408;2024-03-07T02:49:50;27.48;;;11.50;;
71763;SDS011;59602;52.142;5.408;2024-03-07T02:52:17;27.63;;;10.55;;
71763;SDS011;59602;52.142;5.408;2024-03-07T02:54:46;24.95;;;11.25;;
71763;SDS011;59602;52.142;5.408;2024-03-07T02:57:16;29.23;;;12.00;;
71763;SDS011;59602;52.142;5.408;2024-03-07T02:59:48;34.78;;;11.95;;
71763;SDS011;59602;52.142;5.408;2024-03-07T03:02:20;29.98;;;12.18;;
71763;SDS011;59602;52.142;5.408;2024-03-07T03:04:46;27.40;;;10.95;;
71763;SDS011;59602;52.142;5.408;2024-03-07T03:07:14;29.90;;;11.75;;
71763;SDS011;59602;52.142;5.408;2024-03-07T03:09:45;27.57;;;11.10;;
71763;SDS011;59602;52.142;5.408;2024-03-07T03:12:12;27.27;;;11.57;;
71763;SDS011;59602;52.142;5.408;2024-03-07T03:14:41;25.02;;;11.07;;
71763;SDS011;59602;52.142;5.408;2024-03-07T03:17:10;27.80;;;11.32;;
71763;SDS011;59602;52.142;5.408;2024-03-07T03:19:45;24.20;;;10.77;;
71763;SDS011;59602;52.142;5.408;2024-03-07T03:22:15;28.17;;;11.23;;
71763;SDS011;59602;52.142;5.408;2024-03-07T03:24:44;26.70;;;12.07;;
71763;SDS011;59602;52.142;5.408;2024-03-07T03:27:14;26.80;;;11.20;;
71763;SDS011;59602;52.142;5.408;2024-03-07T03:29:40;28.98;;;10.88;;
71763;SDS011;59602;52.142;5.408;2024-03-07T03:32:07;26.38;;;11.13;;
71763;SDS011;59602;52.142;5.408;2024-03-07T03:34:34;31.70;;;11.53;;
71763;SDS011;59602;52.142;5.408;2024-03-07T03:37:01;29.80;;;12.23;;
71763;SDS011;59602;52.142;5.408;2024-03-07T03:39:29;30.08;;;11.45;;
71763;SDS011;59602;52.142;5.408;2024-03-07T03:41:55;34.15;;;12.48;;
71763;SDS011;59602;52.142;5.408;2024-03-07T03:44:22;32.10;;;12.48;;
71763;SDS011;59602;52.142;5.408;2024-03-07T03:46:49;29.77;;;12.13;;
71763;SDS011;59602;52.142;5.408;2024-03-07T03:49:16;26.92;;;10.88;;
71763;SDS011;59602;52.142;5.408;2024-03-07T03:51:42;23.85;;;10.57;;
71763;SDS011;59602;52.142;5.408;2024-03-07T03:54:13;28.75;;;12.23;;
71763;SDS011;59602;52.142;5.408;2024-03-07T03:56:39;32.60;;;13.05;;
71763;SDS011;59602;52.142;5.408;2024-03-07T03:59:06;30.33;;;11.93;;
71763;SDS011;59602;52.142;5.408;2024-03-07T04:01:33;31.23;;;12.60;;
71763;SDS011;59602;52.142;5.408;2024-03-07T04:04:02;27.50;;;11.27;;
71763;SDS011;59602;52.142;5.408;2024-03-07T04:06:29;25.38;;;11.55;;
71763;SDS011;59602;52.142;5.408;2024-03-07T04:08:55;30.17;;;11.90;;
71763;SDS011;59602;52.142;5.408;2024-03-07T04:11:22;26.73;;;11.67;;
71763;SDS011;59602;52.142;5.408;2024-03-07T04:13:51;32.22;;;12.77;;
71763;SDS011;59602;52.142;5.408;2024-03-07T04:16:18;28.65;;;11.63;;
71763;SDS011;59602;52.142;5.408;2024-03-07T04:18:45;29.33;;;11.75;;
71763;SDS011;59602;52.142;5.408;2024-03-07T04:21:11;30.40;;;12.05;;
71763;SDS011;59602;52.142;5.408;2024-03-07T04:23:39;28.77;;;12.00;;
71763;SDS011;59602;52.142;5.408;2024-03-07T04:26:06;29.58;;;11.95;;
71763;SDS011;59602;52.142;5.408;2024-03-07T04:28:35;30.85;;;12.10;;
71763;SDS011;59602;52.142;5.408;2024-03-07T04:31:01;29.38;;;12.00;;
71763;SDS011;59602;52.142;5.408;2024-03-07T04:33:28;32.22;;;12.73;;
71763;SDS011;59602;52.142;5.408;2024-03-07T04:35:55;37.10;;;13.17;;
71763;SDS011;59602;52.142;5.408;2024-03-07T04:38:22;29.30;;;12.55;;
71763;SDS011;59602;52.142;5.408;2024-03-07T04:40:48;32.10;;;12.35;;
71763;SDS011;59602;52.142;5.408;2024-03-07T04:43:15;33.97;;;13.15;;
71763;SDS011;59602;52.142;5.408;2024-03-07T04:45:42;29.98;;;11.90;;
71763;SDS011;59602;52.142;5.408;2024-03-07T04:48:08;30.07;;;11.27;;
71763;SDS011;59602;52.142;5.408;2024-03-07T04:50:35;31.55;;;11.68;;
71763;SDS011;59602;52.142;5.408;2024-03-07T04:53:02;31.88;;;12.70;;
71763;SDS011;59602;52.142;5.408;2024-03-07T04:55:29;24.70;;;10.25;;
71763;SDS011;59602;52.142;5.408;2024-03-07T04:57:56;30.25;;;11.15;;
71763;SDS011;59602;52.142;5.408;2024-03-07T05:00:23;27.87;;;11.17;;
71763;SDS011;59602;52.142;5.408;2024-03-07T05:02:50;32.65;;;12.43;;
71763;SDS011;59602;52.142;5.408;2024-03-07T05:05:18;32.28;;;11.93;;
71763;SDS011;59602;52.142;5.408;2024-03-07T05:08:12;28.70;;;12.27;;
71763;SDS011;59602;52.142;5.408;2024-03-07T05:10:39;26.15;;;10.98;;
71763;SDS011;59602;52.142;5.408;2024-03-07T05:13:07;26.93;;;10.93;;
71763;SDS011;59602;52.142;5.408;2024-03-07T05:15:34;32.08;;;12.00;;
71763;SDS011;59602;52.142;5.408;2024-03-07T05:18:05;32.40;;;12.10;;
71763;SDS011;59602;52.142;5.408;2024-03-07T05:20:32;27.25;;;10.88;;
71763;SDS011;59602;52.142;5.408;2024-03-07T05:22:58;22.60;;;10.15;;
71763;SDS011;59602;52.142;5.408;2024-03-07T05:25:25;25.27;;;10.57;;
71763;SDS011;59602;52.142;5.408;2024-03-07T05:27:56;24.45;;;10.45;;
71763;SDS011;59602;52.142;5.408;2024-03-07T05:30:22;30.48;;;11.55;;
71763;SDS011;59602;52.142;5.408;2024-03-07T05:32:51;30.83;;;12.48;;
71763;SDS011;59602;52.142;5.408;2024-03-07T05:35:18;26.67;;;11.30;;
71763;SDS011;59602;52.142;5.408;2024-03-07T05:37:47;23.73;;;10.43;;
71763;SDS011;59602;52.142;5.408;2024-03-07T05:40:14;27.45;;;10.80;;
71763;SDS011;59602;52.142;5.408;2024-03-07T05:42:41;20.75;;;9.23;;
71763;SDS011;59602;52.142;5.408;2024-03-07T05:45:11;28.85;;;11.43;;
71763;SDS011;59602;52.142;5.408;2024-03-07T05:47:42;25.58;;;10.32;;
71763;SDS011;59602;52.142;5.408;2024-03-07T05:50:09;33.20;;;11.43;;
71763;SDS011;59602;52.142;5.408;2024-03-07T05:52:37;29.20;;;11.63;;
71763;SDS011;59602;52.142;5.408;2024-03-07T05:55:04;33.22;;;12.20;;
71763;SDS011;59602;52.142;5.408;2024-03-07T05:57:33;30.92;;;12.43;;
71763;SDS011;59602;52.142;5.408;2024-03-07T06:00:00;30.02;;;11.82;;
71763;SDS011;59602;52.142;5.408;2024-03-07T06:02:35;30.30;;;11.77;;
71763;SDS011;59602;52.142;5.408;2024-03-07T06:05:02;27.52;;;12.23;;
71763;SDS011;59602;52.142;5.408;2024-03-07T06:07:30;28.55;;;11.27;;
71763;SDS011;59602;52.142;5.408;2024-03-07T06:09:56;23.83;;;11.45;;
71763;SDS011;59602;52.142;5.408;2024-03-07T06:12:23;30.52;;;11.70;;
71763;SDS011;59602;52.142;5.408;2024-03-07T06:14:53;29.37;;;12.23;;
71763;SDS011;59602;52.142;5.408;2024-03-07T06:17:23;31.08;;;12.13;;
71763;SDS011;59602;52.142;5.408;2024-03-07T06:19:56;27.63;;;11.85;;
71763;SDS011;59602;52.142;5.408;2024-03-07T06:22:23;32.85;;;12.23;;
71763;SDS011;59602;52.142;5.408;2024-03-07T06:24:54;27.60;;;11.30;;
71763;SDS011;59602;52.142;5.408;2024-03-07T06:27:38;23.37;;;10.70;;
71763;SDS011;59602;52.142;5.408;2024-03-07T06:30:23;31.23;;;12.07;;
71763;SDS011;59602;52.142;5.408;2024-03-07T06:32:55;32.95;;;12.43;;
71763;SDS011;59602;52.142;5.408;2024-03-07T06:35:42;32.47;;;13.10;;
71763;SDS011;59602;52.142;5.408;2024-03-07T06:38:11;36.38;;;12.38;;
71763;SDS011;59602;52.142;5.408;2024-03-07T06:40:46;31.60;;;12.87;;
71763;SDS011;59602;52.142;5.408;2024-03-07T06:43:37;32.53;;;13.18;;
71763;SDS011;59602;52.142;5.408;2024-03-07T06:46:24;32.30;;;13.73;;
71763;SDS011;59602;52.142;5.408;2024-03-07T06:49:31;34.30;;;13.32;;
71763;SDS011;59602;52.142;5.408;2024-03-07T06:52:23;35.85;;;14.02;;
71763;SDS011;59602;52.142;5.408;2024-03-07T06:55:13;34.47;;;12.73;;
71763;SDS011;59602;52.142;5.408;2024-03-07T07:01:45;35.95;;;14.05;;
71763;SDS011;59602;52.142;5.408;2024-03-07T07:05:21;36.83;;;16.13;;
71763;SDS011;59602;52.142;5.408;2024-03-07T07:08:22;32.63;;;14.25;;
71763;SDS011;59602;52.142;5.408;2024-03-07T07:10:52;36.40;;;14.00;;
71763;SDS011;59602;52.142;5.408;2024-03-07T07:13:41;34.95;;;14.13;;
71763;SDS011;59602;52.142;5.408;2024-03-07T07:16:14;38.03;;;16.10;;
71763;SDS011;59602;52.142;5.408;2024-03-07T07:19:16;31.38;;;14.07;;
71763;SDS011;59602;52.142;5.408;2024-03-07T07:21:43;31.40;;;12.68;;
71763;SDS011;59602;52.142;5.408;2024-03-07T07:24:09;34.20;;;14.63;;
71763;SDS011;59602;52.142;5.408;2024-03-07T07:26:37;36.65;;;16.20;;
71763;SDS011;59602;52.142;5.408;2024-03-07T07:29:05;32.03;;;13.40;;
71763;SDS011;59602;52.142;5.408;2024-03-07T07:31:32;32.15;;;13.25;;
71763;SDS011;59602;52.142;5.408;2024-03-07T07:33:59;36.53;;;13.07;;
71763;SDS011;59602;52.142;5.408;2024-03-07T07:36:25;32.60;;;12.87;;
71763;SDS011;59602;52.142;5.408;2024-03-07T07:38:56;34.65;;;13.15;;
71763;SDS011;59602;52.142;5.408;2024-03-07T07:41:24;32.13;;;12.75;;
71763;SDS011;59602;52.142;5.408;2024-03-07T07:43:51;32.05;;;13.00;;
71763;SDS011;59602;52.142;5.408;2024-03-07T07:46:18;29.30;;;12.43;;
71763;SDS011;59602;52.142;5.408;2024-03-07T07:48:44;28.80;;;12.17;;
71763;SDS011;59602;52.142;5.408;2024-03-07T07:51:11;31.50;;;12.45;;
71763;SDS011;59602;52.142;5.408;2024-03-07T07:53:39;28.98;;;11.95;;
71763;SDS011;59602;52.142;5.408;2024-03-07T07:56:06;28.27;;;12.50;;
71763;SDS011;59602;52.142;5.408;2024-03-07T07:58:34;40.30;;;20.38;;
71763;SDS011;59602;52.142;5.408;2024-03-07T08:01:01;26.13;;;13.23;;
71763;SDS011;59602;52.142;5.408;2024-03-07T08:03:27;30.48;;;13.68;;
71763;SDS011;59602;52.142;5.408;2024-03-07T08:05:54;33.63;;;14.18;;
71763;SDS011;59602;52.142;5.408;2024-03-07T08:08:21;27.95;;;12.25;;
71763;SDS011;59602;52.142;5.408;2024-03-07T08:10:48;31.77;;;12.43;;
71763;SDS011;59602;52.142;5.408;2024-03-07T08:13:15;27.07;;;11.87;;
71763;SDS011;59602;52.142;5.408;2024-03-07T08:15:42;26.20;;;11.30;;
71763;SDS011;59602;52.142;5.408;2024-03-07T08:18:09;24.98;;;11.25;;
71763;SDS011;59602;52.142;5.408;2024-03-07T08:20:38;25.48;;;11.13;;
71763;SDS011;59602;52.142;5.408;2024-03-07T08:23:07;26.00;;;11.57;;
71763;SDS011;59602;52.142;5.408;2024-03-07T08:25:37;26.87;;;11.67;;
71763;SDS011;59602;52.142;5.408;2024-03-07T08:28:06;24.60;;;11.13;;
71763;SDS011;59602;52.142;5.408;2024-03-07T08:30:33;23.75;;;11.02;;
71763;SDS011;59602;52.142;5.408;2024-03-07T08:33:01;23.50;;;10.85;;
71763;SDS011;59602;52.142;5.408;2024-03-07T08:35:32;26.30;;;11.05;;
71763;SDS011;59602;52.142;5.408;2024-03-07T08:37:59;24.30;;;11.13;;
71763;SDS011;59602;52.142;5.408;2024-03-07T08:40:26;23.60;;;11.10;;
71763;SDS011;59602;52.142;5.408;2024-03-07T08:43:00;20.95;;;10.07;;
71763;SDS011;59602;52.142;5.408;2024-03-07T08:45:27;24.27;;;10.52;;
71763;SDS011;59602;52.142;5.408;2024-03-07T08:47:59;20.67;;;9.75;;
71763;SDS011;59602;52.142;5.408;2024-03-07T08:50:26;20.13;;;9.47;;
71763;SDS011;59602;52.142;5.408;2024-03-07T08:52:54;20.45;;;9.82;;
71763;SDS011;59602;52.142;5.408;2024-03-07T08:55:23;20.95;;;9.60;;
71763;SDS011;59602;52.142;5.408;2024-03-07T08:58:23;19.23;;;9.23;;
71763;SDS011;59602;52.142;5.408;2024-03-07T09:01:37;18.95;;;8.90;;
71763;SDS011;59602;52.142;5.408;2024-03-07T09:04:29;22.53;;;10.33;;
71763;SDS011;59602;52.142;5.408;2024-03-07T09:07:25;16.77;;;8.50;;
71763;SDS011;59602;52.142;5.408;2024-03-07T09:10:50;16.48;;;7.70;;
71763;SDS011;59602;52.142;5.408;2024-03-07T09:14:27;15.18;;;7.53;;
71763;SDS011;59602;52.142;5.408;2024-03-07T09:16:57;15.75;;;8.10;;
71763;SDS011;59602;52.142;5.408;2024-03-07T09:19:44;16.83;;;8.10;;
71763;SDS011;59602;52.142;5.408;2024-03-07T09:22:53;18.25;;;7.53;;
71763;SDS011;59602;52.142;5.408;2024-03-07T09:25:24;15.30;;;7.45;;
71763;SDS011;59602;52.142;5.408;2024-03-07T09:28:12;17.98;;;8.30;;
71763;SDS011;59602;52.142;5.408;2024-03-07T09:34:18;15.30;;;7.47;;
71763;SDS011;59602;52.142;5.408;2024-03-07T09:37:15;14.88;;;7.38;;
71763;SDS011;59602;52.142;5.408;2024-03-07T09:40:28;14.23;;;6.65;;
71763;SDS011;59602;52.142;5.408;2024-03-07T09:51:26;14.43;;;7.43;;
71763;SDS011;59602;52.142;5.408;2024-03-07T09:55:40;15.20;;;6.80;;
71763;SDS011;59602;52.142;5.408;2024-03-07T10:11:36;18.07;;;7.87;;
71763;SDS011;59602;52.142;5.408;2024-03-07T10:25:46;17.70;;;7.57;;
71763;SDS011;59602;52.142;5.408;2024-03-07T10:32:43;17.63;;;7.90;;
71763;SDS011;59602;52.142;5.408;2024-03-07T10:36:09;17.55;;;7.28;;
71763;SDS011;59602;52.142;5.408;2024-03-07T10:43:32;17.93;;;8.20;;
71763;SDS011;59602;52.142;5.408;2024-03-07T15:41:18;13.02;;;6.03;;
71763;SDS011;59602;52.142;5.408;2024-03-07T15:44:31;18.15;;;7.32;;
71763;SDS011;59602;52.142;5.408;2024-03-07T15:47:37;12.82;;;6.75;;
71763;SDS011;59602;52.142;5.408;2024-03-07T15:51:05;14.20;;;6.77;;
71763;SDS011;59602;52.142;5.408;2024-03-07T16:21:37;13.25;;;6.15;;
71763;SDS011;59602;52.142;5.408;2024-03-07T16:24:05;15.33;;;7.20;;
71763;SDS011;59602;52.142;5.408;2024-03-07T16:54:38;17.83;;;6.90;;
71763;SDS011;59602;52.142;5.408;2024-03-07T17:02:08;17.40;;;7.07;;
71763;SDS011;59602;52.142;5.408;2024-03-07T17:06:06;15.80;;;6.80;;
71763;SDS011;59602;52.142;5.408;2024-03-07T17:09:33;19.40;;;8.00;;
71763;SDS011;59602;52.142;5.408;2024-03-07T17:36:39;19.17;;;6.47;;
71763;SDS011;59602;52.142;5.408;2024-03-07T17:39:55;16.70;;;7.18;;
71763;SDS011;59602;52.142;5.408;2024-03-07T17:43:00;15.88;;;6.82;;
71763;SDS011;59602;52.142;5.408;2024-03-07T17:45:47;17.83;;;7.47;;
71763;SDS011;59602;52.142;5.408;2024-03-07T17:48:21;18.33;;;7.57;;
71763;SDS011;59602;52.142;5.408;2024-03-07T17:54:00;20.30;;;8.27;;
71763;SDS011;59602;52.142;5.408;2024-03-07T17:56:38;17.70;;;6.95;;
71763;SDS011;59602;52.142;5.408;2024-03-07T17:59:29;16.60;;;6.80;;
71763;SDS011;59602;52.142;5.408;2024-03-07T18:02:25;18.30;;;7.30;;
71763;SDS011;59602;52.142;5.408;2024-03-07T18:05:31;19.38;;;7.68;;
71763;SDS011;59602;52.142;5.408;2024-03-07T18:07:56;17.73;;;7.40;;
71763;SDS011;59602;52.142;5.408;2024-03-07T18:10:59;18.67;;;7.55;;
71763;SDS011;59602;52.142;5.408;2024-03-07T18:13:40;17.05;;;7.38;;
71763;SDS011;59602;52.142;5.408;2024-03-07T18:16:11;18.87;;;7.13;;
71763;SDS011;59602;52.142;5.408;2024-03-07T18:18:51;19.50;;;7.53;;
71763;SDS011;59602;52.142;5.408;2024-03-07T18:21:25;19.15;;;7.80;;
71763;SDS011;59602;52.142;5.408;2024-03-07T18:24:08;18.98;;;7.88;;
71763;SDS011;59602;52.142;5.408;2024-03-07T18:26:59;21.80;;;8.45;;
71763;SDS011;59602;52.142;5.408;2024-03-07T18:29:46;21.93;;;7.67;;
71763;SDS011;59602;52.142;5.408;2024-03-07T18:32:44;22.05;;;7.80;;
71763;SDS011;59602;52.142;5.408;2024-03-07T18:35:19;22.23;;;7.85;;
71763;SDS011;59602;52.142;5.408;2024-03-07T18:37:50;23.30;;;8.70;;
71763;SDS011;59602;52.142;5.408;2024-03-07T18:40:18;19.17;;;7.20;;
71763;SDS011;59602;52.142;5.408;2024-03-07T18:43:05;19.10;;;8.33;;
71763;SDS011;59602;52.142;5.408;2024-03-07T18:45:51;22.35;;;8.55;;
71763;SDS011;59602;52.142;5.408;2024-03-07T18:48:38;22.27;;;7.90;;
71763;SDS011;59602;52.142;5.408;2024-03-07T18:51:30;25.35;;;8.85;;
71763;SDS011;59602;52.142;5.408;2024-03-07T18:54:05;21.38;;;8.60;;
71763;SDS011;59602;52.142;5.408;2024-03-07T18:56:36;23.90;;;8.33;;
71763;SDS011;59602;52.142;5.408;2024-03-07T18:59:17;21.27;;;8.15;;
71763;SDS011;59602;52.142;5.408;2024-03-07T19:01:51;24.75;;;7.95;;
71763;SDS011;59602;52.142;5.408;2024-03-07T19:04:20;23.20;;;7.97;;
71763;SDS011;59602;52.142;5.408;2024-03-07T19:06:46;23.58;;;9.43;;
71763;SDS011;59602;52.142;5.408;2024-03-07T19:09:13;22.80;;;8.70;;
71763;SDS011;59602;52.142;5.408;2024-03-07T19:12:17;22.48;;;8.85;;
71763;SDS011;59602;52.142;5.408;2024-03-07T19:15:07;20.83;;;7.80;;
71763;SDS011;59602;52.142;5.408;2024-03-07T19:17:36;23.00;;;8.90;;
71763;SDS011;59602;52.142;5.408;2024-03-07T19:20:44;24.85;;;9.20;;
71763;SDS011;59602;52.142;5.408;2024-03-07T19:23:12;19.40;;;7.93;;
71763;SDS011;59602;52.142;5.408;2024-03-07T19:25:56;24.33;;;7.88;;
71763;SDS011;59602;52.142;5.408;2024-03-07T19:28:36;22.20;;;8.40;;
71763;SDS011;59602;52.142;5.408;2024-03-07T19:31:04;18.38;;;7.55;;
71763;SDS011;59602;52.142;5.408;2024-03-07T19:34:00;20.00;;;7.80;;
71763;SDS011;59602;52.142;5.408;2024-03-07T19:36:48;22.87;;;8.23;;
71763;SDS011;59602;52.142;5.408;2024-03-07T19:39:54;25.77;;;8.43;;
71763;SDS011;59602;52.142;5.408;2024-03-07T19:42:24;23.13;;;8.48;;
71763;SDS011;59602;52.142;5.408;2024-03-07T19:44:58;18.30;;;8.15;;
71763;SDS011;59602;52.142;5.408;2024-03-07T19:47:33;20.98;;;7.90;;
71763;SDS011;59602;52.142;5.408;2024-03-07T19:50:00;23.13;;;8.87;;
71763;SDS011;59602;52.142;5.408;2024-03-07T19:52:30;21.70;;;8.07;;
71763;SDS011;59602;52.142;5.408;2024-03-07T19:55:06;20.70;;;8.10;;
71763;SDS011;59602;52.142;5.408;2024-03-07T19:57:42;18.92;;;7.50;;
71763;SDS011;59602;52.142;5.408;2024-03-07T20:00:23;21.52;;;8.15;;
71763;SDS011;59602;52.142;5.408;2024-03-07T20:02:51;18.97;;;8.07;;
71763;SDS011;59602;52.142;5.408;2024-03-07T20:05:21;22.35;;;7.82;;
71763;SDS011;59602;52.142;5.408;2024-03-07T20:08:10;20.92;;;8.32;;
71763;SDS011;59602;52.142;5.408;2024-03-07T20:11:04;24.42;;;8.40;;
71763;SDS011;59602;52.142;5.408;2024-03-07T20:13:34;20.70;;;7.80;;
71763;SDS011;59602;52.142;5.408;2024-03-07T20:16:16;19.37;;;7.63;;
71763;SDS011;59602;52.142;5.408;2024-03-07T20:18:42;23.05;;;8.35;;
71763;SDS011;59602;52.142;5.408;2024-03-07T20:21:10;21.98;;;8.63;;
71763;SDS011;59602;52.142;5.408;2024-03-07T20:23:38;25.30;;;7.93;;
71763;SDS011;59602;52.142;5.408;2024-03-07T20:26:16;22.73;;;8.27;;
71763;SDS011;59602;52.142;5.408;2024-03-07T20:28:48;18.53;;;8.30;;
71763;SDS011;59602;52.142;5.408;2024-03-07T20:31:17;22.17;;;8.40;;
71763;SDS011;59602;52.142;5.408;2024-03-07T20:33:47;18.35;;;6.95;;
71763;SDS011;59602;52.142;5.408;2024-03-07T20:36:14;23.00;;;8.70;;
71763;SDS011;59602;52.142;5.408;2024-03-07T20:38:43;21.20;;;7.75;;
71763;SDS011;59602;52.142;5.408;2024-03-07T20:41:18;18.10;;;7.67;;
71763;SDS011;59602;52.142;5.408;2024-03-07T20:43:52;22.00;;;8.43;;
71763;SDS011;59602;52.142;5.408;2024-03-07T20:46:28;20.60;;;8.18;;
71763;SDS011;59602;52.142;5.408;2024-03-07T20:48:55;19.42;;;7.70;;
71763;SDS011;59602;52.142;5.408;2024-03-07T20:51:24;20.50;;;8.20;;
71763;SDS011;59602;52.142;5.408;2024-03-07T20:53:52;20.77;;;8.10;;
71763;SDS011;59602;52.142;5.408;2024-03-07T20:56:20;17.85;;;7.93;;
71763;SDS011;59602;52.142;5.408;2024-03-07T20:58:53;20.80;;;8.57;;
71763;SDS011;59602;52.142;5.408;2024-03-07T21:01:22;20.27;;;8.52;;
71763;SDS011;59602;52.142;5.408;2024-03-07T21:03:51;20.88;;;8.15;;
71763;SDS011;59602;52.142;5.408;2024-03-07T21:06:25;21.73;;;7.93;;
71763;SDS011;59602;52.142;5.408;2024-03-07T21:08:55;21.00;;;7.50;;
71763;SDS011;59602;52.142;5.408;2024-03-07T21:11:23;18.27;;;7.72;;
71763;SDS011;59602;52.142;5.408;2024-03-07T21:14:16;18.48;;;7.35;;
71763;SDS011;59602;52.142;5.408;2024-03-07T21:16:43;21.20;;;8.02;;
71763;SDS011;59602;52.142;5.408;2024-03-07T21:19:14;21.17;;;7.83;;
71763;SDS011;59602;52.142;5.408;2024-03-07T21:21:41;19.13;;;7.93;;
71763;SDS011;59602;52.142;5.408;2024-03-07T21:24:10;21.63;;;8.32;;
71763;SDS011;59602;52.142;5.408;2024-03-07T21:26:39;21.02;;;8.50;;
71763;SDS011;59602;52.142;5.408;2024-03-07T21:29:14;23.08;;;8.27;;
71763;SDS011;59602;52.142;5.408;2024-03-07T21:31:42;20.53;;;8.80;;
71763;SDS011;59602;52.142;5.408;2024-03-07T21:34:08;23.13;;;8.77;;
71763;SDS011;59602;52.142;5.408;2024-03-07T21:36:42;22.65;;;8.70;;
71763;SDS011;59602;52.142;5.408;2024-03-07T21:39:10;20.17;;;9.10;;
71763;SDS011;59602;52.142;5.408;2024-03-07T21:41:45;23.83;;;8.93;;
71763;SDS011;59602;52.142;5.408;2024-03-07T21:44:17;21.13;;;8.33;;
71763;SDS011;59602;52.142;5.408;2024-03-07T21:46:49;24.42;;;8.88;;
71763;SDS011;59602;52.142;5.408;2024-03-07T21:49:16;24.58;;;8.80;;
71763;SDS011;59602;52.142;5.408;2024-03-07T21:51:45;25.00;;;8.90;;
71763;SDS011;59602;52.142;5.408;2024-03-07T21:54:15;23.92;;;8.57;;
71763;SDS011;59602;52.142;5.408;2024-03-07T21:56:56;22.23;;;9.27;;
71763;SDS011;59602;52.142;5.408;2024-03-07T21:59:32;20.85;;;8.77;;
71763;SDS011;59602;52.142;5.408;2024-03-07T22:02:01;22.60;;;8.57;;
71763;SDS011;59602;52.142;5.408;2024-03-07T22:04:35;23.60;;;9.13;;
71763;SDS011;59602;52.142;5.408;2024-03-07T22:07:16;26.77;;;8.80;;
71763;SDS011;59602;52.142;5.408;2024-03-07T22:09:45;23.57;;;9.00;;
71763;SDS011;59602;52.142;5.408;2024-03-07T22:12:15;23.10;;;9.10;;
71763;SDS011;59602;52.142;5.408;2024-03-07T22:14:48;23.63;;;8.63;;
71763;SDS011;59602;52.142;5.408;2024-03-07T22:17:38;23.88;;;8.73;;
71763;SDS011;59602;52.142;5.408;2024-03-07T22:20:09;20.70;;;8.48;;
71763;SDS011;59602;52.142;5.408;2024-03-07T22:22:42;24.20;;;9.73;;
71763;SDS011;59602;52.142;5.408;2024-03-07T22:25:16;23.33;;;9.40;;